NCAR-RAP Real-Time Weather Data

Output produced by METARs form (20 February 2019  18:08 UTC)
found at http://weather.rap.ucar.edu/surface/
 
Conditions at: KBKV observed 20 February 2019  17:53 UTC
Temperature: 30.6°C (87°F)
Dewpoint: 19.4°C (67°F) [RH = 51%]
Pressure (altimeter): 30.08 inches Hg (1018.7 mb)
[Sea-level pressure: 1018.3 mb]
Winds: from the S (180 degrees) at 17 MPH (15 knots; 7.8 m/s)
Visibility: 10 or more miles (16+ km)
Ceiling: at least 12,000 feet AGL
Clouds: few clouds at 3700 feet AGL
scattered clouds at 4700 feet AGL
Present Weather: no significant weather observed at this time
KBKV 201753Z 18015KT 10SM FEW037 SCT047 31/19 A3008 RMK AO2 SLP183 T03060194 10306 20206 58012

Conditions at: KBKV observed 20 February 2019  16:53 UTC
Temperature: 28.9°C (84°F)
Dewpoint: 20.0°C (68°F) [RH = 59%]
Pressure (altimeter): 30.10 inches Hg (1019.4 mb)
[Sea-level pressure: 1019.1 mb]
Winds: from the SSE (160 degrees) at 20 MPH (17 knots; 8.8 m/s)
gusting to 28 MPH (24 knots; 12.5 m/s)
Visibility: 10 or more miles (16+ km)
Ceiling: 3500 feet AGL
Clouds: scattered clouds at 3000 feet AGL
broken clouds at 3500 feet AGL
Present Weather: no significant weather observed at this time
KBKV 201653Z 16017G24KT 10SM SCT030 BKN035 29/20 A3010 RMK AO2 SLP191 T02890200

Conditions at: KBKV observed 20 February 2019  16:24 UTC
Temperature: 28.3°C (83°F)
Dewpoint: 20.6°C (69°F) [RH = 63%]
Pressure (altimeter): 30.10 inches Hg (1019.4 mb)
Winds: from the SSE (150 degrees) at 21 MPH (18 knots; 9.4 m/s)
gusting to 28 MPH (24 knots; 12.5 m/s)
Visibility: 10 or more miles (16+ km)
Ceiling: 3200 feet AGL
Clouds: scattered clouds at 2600 feet AGL
broken clouds at 3200 feet AGL
Present Weather: no significant weather observed at this time
KBKV 201624Z 15018G24KT 10SM SCT026 BKN032 28/21 A3010 RMK AO2 T02830206

Conditions at: KBKV observed 20 February 2019  15:53 UTC
Temperature: 27.2°C (81°F)
Dewpoint: 20.6°C (69°F) [RH = 67%]
Pressure (altimeter): 30.12 inches Hg (1020.1 mb)
[Sea-level pressure: 1019.7 mb]
Winds: from the SSE (160 degrees) at 17 MPH (15 knots; 7.8 m/s)
Visibility: 10 or more miles (16+ km)
Ceiling: 2200 feet AGL
Clouds: broken clouds at 2200 feet AGL
broken clouds at 2700 feet AGL
Present Weather: no significant weather observed at this time
KBKV 201553Z 16015KT 10SM BKN022 BKN027 27/21 A3012 RMK AO2 SLP197 T02720206

Conditions at: KBKV observed 20 February 2019  14:53 UTC
Temperature: 25.6°C (78°F)
Dewpoint: 21.1°C (70°F) [RH = 76%]
Pressure (altimeter): 30.11 inches Hg (1019.7 mb)
[Sea-level pressure: 1019.5 mb]
Winds: from the SSE (150 degrees) at 17 MPH (15 knots; 7.8 m/s)
gusting to 25 MPH (22 knots; 11.4 m/s)
Visibility: 10 or more miles (16+ km)
Ceiling: 1500 feet AGL
Clouds: broken clouds at 1500 feet AGL
Present Weather: no significant weather observed at this time
KBKV 201453Z 15015G22KT 10SM BKN015 26/21 A3011 RMK AO2 SLP195 T02560211 50006

Conditions at: KBKV observed 20 February 2019  14:42 UTC
Temperature: 25.0°C (77°F)
Dewpoint: 21.1°C (70°F) [RH = 79%]
Pressure (altimeter): 30.12 inches Hg (1020.1 mb)
Winds: from the SE (140 degrees) at 12 MPH (10 knots; 5.2 m/s)
gusting to 22 MPH (19 knots; 9.9 m/s)
Visibility: 10 or more miles (16+ km)
Ceiling: 1500 feet AGL
Clouds: broken clouds at 1500 feet AGL
Present Weather: no significant weather observed at this time
KBKV 201442Z 14010G19KT 10SM BKN015 25/21 A3012 RMK AO2 T02500211

Conditions at: KBKV observed 20 February 2019  13:53 UTC
Temperature: 23.3°C (74°F)
Dewpoint: 21.1°C (70°F) [RH = 87%]
Pressure (altimeter): 30.11 inches Hg (1019.7 mb)
[Sea-level pressure: 1019.5 mb]
Winds: from the SE (140 degrees) at 16 MPH (14 knots; 7.3 m/s)
gusting to 20 MPH (17 knots; 8.8 m/s)
Visibility: 10 or more miles (16+ km)
Ceiling: 7500 feet AGL
Clouds: scattered clouds at 6000 feet AGL
overcast cloud deck at 7500 feet AGL
Present Weather: no significant weather observed at this time
KBKV 201353Z 14014G17KT 10SM SCT060 OVC075 23/21 A3011 RMK AO2 SLP195 T02330211

Conditions at: KBKV observed 20 February 2019  12:53 UTC
Temperature: 22.2°C (72°F)
Dewpoint: 20.6°C (69°F) [RH = 91%]
Pressure (altimeter): 30.11 inches Hg (1019.7 mb)
[Sea-level pressure: 1019.3 mb]
Winds: from the SE (140 degrees) at 7 MPH (6 knots; 3.1 m/s)
Visibility: 10 or more miles (16+ km)
Ceiling: 6500 feet AGL
Clouds: overcast cloud deck at 6500 feet AGL
Present Weather: no significant weather observed at this time
KBKV 201253Z 14006KT 10SM OVC065 22/21 A3011 RMK AO2 SLP193 T02220206

Conditions at: KBKV observed 20 February 2019  11:53 UTC
Temperature: 20.6°C (69°F)
Dewpoint: 19.4°C (67°F) [RH = 93%]
Pressure (altimeter): 30.10 inches Hg (1019.4 mb)
[Sea-level pressure: 1018.9 mb]
Winds: from the ESE (120 degrees) at 9 MPH (8 knots; 4.2 m/s)
Visibility: 9 miles (14 km)
Ceiling: at least 12,000 feet AGL
Clouds: sky clear below 12,000 feet AGL
Present Weather: no significant weather observed at this time
KBKV 201153Z 12008KT 9SM CLR 21/19 A3010 RMK AO2 SLP189 T02060194 10222 20206 53003

Conditions at: KBKV observed 20 February 2019  11:29 UTC
Temperature: 20.6°C (69°F)
Dewpoint: 19.4°C (67°F) [RH = 93%]
Pressure (altimeter): 30.10 inches Hg (1019.4 mb)
Winds: from the ESE (110 degrees) at 8 MPH (7 knots; 3.6 m/s)
Visibility: 9 miles (14 km)
Ceiling: at least 12,000 feet AGL
Clouds: few clouds at 800 feet AGL
scattered clouds at 1800 feet AGL
Present Weather: automated observation with no human augmentation;
there may or may not be significant weather present at this time
KBKV 201129Z AUTO 11007KT 9SM FEW008 SCT018 21/19 A3010 RMK AO2 T02060194

Conditions at: KBKV observed 20 February 2019  11:12 UTC
Temperature: 20.6°C (69°F)
Dewpoint: 19.4°C (67°F) [RH = 93%]
Pressure (altimeter): 30.09 inches Hg (1019.0 mb)
Winds: from the E (100 degrees) at 6 MPH (5 knots; 2.6 m/s)
Visibility: 9 miles (14 km)
Ceiling: 1800 feet AGL
Clouds: scattered clouds at 800 feet AGL
broken clouds at 1800 feet AGL
Present Weather: automated observation with no human augmentation;
there may or may not be significant weather present at this time
KBKV 201112Z AUTO 10005KT 9SM SCT008 BKN018 21/19 A3009 RMK AO2 T02060194

Conditions at: KBKV observed 20 February 2019  10:53 UTC
Temperature: 20.6°C (69°F)
Dewpoint: 19.4°C (67°F) [RH = 93%]
Pressure (altimeter): 30.09 inches Hg (1019.0 mb)
[Sea-level pressure: 1018.8 mb]
Winds: from the E (100 degrees) at 5 MPH (4 knots; 2.1 m/s)
Visibility: 9 miles (14 km)
Ceiling: at least 12,000 feet AGL
Clouds: sky clear below 12,000 feet AGL
Present Weather: automated observation with no human augmentation;
there may or may not be significant weather present at this time
KBKV 201053Z AUTO 10004KT 9SM CLR 21/19 A3009 RMK AO2 SLP188 T02060194

Conditions at: KBKV observed 20 February 2019  09:53 UTC
Temperature: 20.6°C (69°F)
Dewpoint: 19.4°C (67°F) [RH = 93%]
Pressure (altimeter): 30.09 inches Hg (1019.0 mb)
[Sea-level pressure: 1018.6 mb]
Winds: from the E (100 degrees) at 5 MPH (4 knots; 2.1 m/s)
Visibility: 10 or more miles (16+ km)
Ceiling: at least 12,000 feet AGL
Clouds: sky clear below 12,000 feet AGL
Present Weather: automated observation with no human augmentation;
there may or may not be significant weather present at this time
KBKV 200953Z AUTO 10004KT 10SM CLR 21/19 A3009 RMK AO2 SLP186 T02060194

Conditions at: KBKV observed 20 February 2019  08:53 UTC
Temperature: 21.1°C (70°F)
Dewpoint: 19.4°C (67°F) [RH = 90%]
Pressure (altimeter): 30.09 inches Hg (1019.0 mb)
[Sea-level pressure: 1018.6 mb]
Winds: from the E (100 degrees) at 7 MPH (6 knots; 3.1 m/s)
Visibility: 10 or more miles (16+ km)
Ceiling: at least 12,000 feet AGL
Clouds: sky clear below 12,000 feet AGL
Present Weather: automated observation with no human augmentation;
there may or may not be significant weather present at this time
KBKV 200853Z AUTO 10006KT 10SM CLR 21/19 A3009 RMK AO2 SLP186 T02110194 58014

Conditions at: KBKV observed 20 February 2019  07:53 UTC
Temperature: 21.1°C (70°F)
Dewpoint: 20.0°C (68°F) [RH = 93%]
Pressure (altimeter): 30.11 inches Hg (1019.7 mb)
[Sea-level pressure: 1019.4 mb]
Winds: from the ESE (110 degrees) at 3 MPH (3 knots; 1.6 m/s)
Visibility: 10 or more miles (16+ km)
Ceiling: at least 12,000 feet AGL
Clouds: few clouds at 1000 feet AGL
Present Weather: automated observation with no human augmentation;
there may or may not be significant weather present at this time
KBKV 200753Z AUTO 11003KT 10SM FEW010 21/20 A3011 RMK AO2 SLP194 T02110200

Conditions at: KBKV observed 20 February 2019  07:48 UTC
Temperature: 21.0°C (70°F)
Dewpoint: 20.0°C (68°F) [RH = 94%]
Pressure (altimeter): 30.11 inches Hg (1019.7 mb)
Winds: from the ESE (110 degrees) at 3 MPH (3 knots; 1.6 m/s)
Visibility: 10 or more miles (16+ km)
Ceiling: at least 12,000 feet AGL
Clouds: scattered clouds at 1000 feet AGL
Present Weather: automated observation with no human augmentation;
there may or may not be significant weather present at this time
KBKV 200748Z AUTO 11003KT 10SM SCT010 21/20 A3011 RMK AO2

Conditions at: KBKV observed 20 February 2019  07:17 UTC
Temperature: 22.2°C (72°F)
Dewpoint: 20.0°C (68°F) [RH = 87%]
Pressure (altimeter): 30.12 inches Hg (1020.1 mb)
Winds: from the ESE (110 degrees) at 7 MPH (6 knots; 3.1 m/s)
Visibility: 10 or more miles (16+ km)
Ceiling: 1100 feet AGL
Clouds: broken clouds at 1100 feet AGL
Present Weather: automated observation with no human augmentation;
there may or may not be significant weather present at this time
KBKV 200717Z AUTO 11006KT 10SM BKN011 22/20 A3012 RMK AO2 CIG 009V014 T02220200

Conditions at: KBKV observed 20 February 2019  07:05 UTC
Temperature: 21.7°C (71°F)
Dewpoint: 20.0°C (68°F) [RH = 90%]
Pressure (altimeter): 30.13 inches Hg (1020.4 mb)
Winds: from the E (100 degrees) at 5 MPH (4 knots; 2.1 m/s)
Visibility: 10 or more miles (16+ km)
Ceiling: 900 feet AGL
Clouds: broken clouds at 900 feet AGL
Present Weather: automated observation with no human augmentation;
there may or may not be significant weather present at this time
KBKV 200705Z AUTO 10004KT 10SM BKN009 22/20 A3013 RMK AO2 T02170200

Conditions at: KBKV observed 20 February 2019  06:53 UTC
Temperature: 21.7°C (71°F)
Dewpoint: 20.0°C (68°F) [RH = 90%]
Pressure (altimeter): 30.13 inches Hg (1020.4 mb)
[Sea-level pressure: 1020.0 mb]
Winds: from the E (100 degrees) at 5 MPH (4 knots; 2.1 m/s)
Visibility: 10 or more miles (16+ km)
Ceiling: at least 12,000 feet AGL
Clouds: few clouds at 1000 feet AGL
Present Weather: automated observation with no human augmentation;
there may or may not be significant weather present at this time
KBKV 200653Z AUTO 10004KT 10SM FEW010 22/20 A3013 RMK AO2 SLP200 T02170200

Conditions at: KBKV observed 20 February 2019  05:53 UTC
Temperature: 21.1°C (70°F)
Dewpoint: 19.4°C (67°F) [RH = 90%]
Pressure (altimeter): 30.14 inches Hg (1020.7 mb)
[Sea-level pressure: 1020.3 mb]
Winds: from the ESE (120 degrees) at 5 MPH (4 knots; 2.1 m/s)
Visibility: 10 or more miles (16+ km)
Ceiling: at least 12,000 feet AGL
Clouds: sky clear below 12,000 feet AGL
Present Weather: automated observation with no human augmentation;
there may or may not be significant weather present at this time
KBKV 200553Z AUTO 12004KT 10SM CLR 21/19 A3014 RMK AO2 SLP203 T02110194 10267 20211 58007

Conditions at: KBKV observed 20 February 2019  04:53 UTC
Temperature: 22.2°C (72°F)
Dewpoint: 18.9°C (66°F) [RH = 82%]
Pressure (altimeter): 30.15 inches Hg (1021.1 mb)
[Sea-level pressure: 1020.7 mb]
Winds: from the ESE (120 degrees) at 6 MPH (5 knots; 2.6 m/s)
Visibility: 10 or more miles (16+ km)
Ceiling: at least 12,000 feet AGL
Clouds: sky clear below 12,000 feet AGL
Present Weather: automated observation with no human augmentation;
there may or may not be significant weather present at this time
KBKV 200453Z AUTO 12005KT 10SM CLR 22/19 A3015 RMK AO2 SLP207 T02220189 403110178

Conditions at: KBKV observed 20 February 2019  03:53 UTC
Temperature: 22.8°C (73°F)
Dewpoint: 18.9°C (66°F) [RH = 79%]
Pressure (altimeter): 30.16 inches Hg (1021.4 mb)
[Sea-level pressure: 1021.1 mb]
Winds: from the ESE (110 degrees) at 5 MPH (4 knots; 2.1 m/s)
Visibility: 10 or more miles (16+ km)
Ceiling: at least 12,000 feet AGL
Clouds: scattered clouds at 6000 feet AGL
Present Weather: automated observation with no human augmentation;
there may or may not be significant weather present at this time
KBKV 200353Z AUTO 11004KT 10SM SCT060 23/19 A3016 RMK AO2 SLP211 T02280189

Conditions at: KBKV observed 20 February 2019  02:53 UTC
Temperature: 23.9°C (75°F)
Dewpoint: 19.4°C (67°F) [RH = 76%]
Pressure (altimeter): 30.16 inches Hg (1021.4 mb)
[Sea-level pressure: 1021.1 mb]
Winds: from the ESE (110 degrees) at 3 MPH (3 knots; 1.6 m/s)
Visibility: 10 or more miles (16+ km)
Ceiling: at least 12,000 feet AGL
Clouds: few clouds at 5000 feet AGL
Present Weather: automated observation with no human augmentation;
there may or may not be significant weather present at this time
KBKV 200253Z AUTO 11003KT 10SM FEW050 24/19 A3016 RMK AO2 SLP211 T02390194 51016

Conditions at: KBKV observed 20 February 2019  01:53 UTC
Temperature: 24.4°C (76°F)
Dewpoint: 19.4°C (67°F) [RH = 74%]
Pressure (altimeter): 30.15 inches Hg (1021.1 mb)
[Sea-level pressure: 1020.8 mb]
Winds: calm
Visibility: 10 or more miles (16+ km)
Ceiling: 5000 feet AGL
Clouds: broken clouds at 5000 feet AGL
overcast cloud deck at 6000 feet AGL
Present Weather: no significant weather observed at this time
KBKV 200153Z 00000KT 10SM BKN050 OVC060 24/19 A3015 RMK AO2 SLP208 T02440194

Conditions at: KBKV observed 20 February 2019  00:53 UTC
Temperature: 25.0°C (77°F)
Dewpoint: 19.4°C (67°F) [RH = 71%]
Pressure (altimeter): 30.13 inches Hg (1020.4 mb)
[Sea-level pressure: 1020.2 mb]
Winds: from the WNW (300 degrees) at 3 MPH (3 knots; 1.6 m/s)
Visibility: 10 or more miles (16+ km)
Ceiling: 9000 feet AGL
Clouds: scattered clouds at 5500 feet AGL
broken clouds at 9000 feet AGL
Present Weather: no significant weather observed at this time
KBKV 200053Z 30003KT 10SM SCT055 BKN090 25/19 A3013 RMK AO2 SLP202 T02500194

Conditions at: KBKV observed 19 February 2019  23:53 UTC
Temperature: 26.7°C (80°F)
Dewpoint: 19.4°C (67°F) [RH = 64%]
Pressure (altimeter): 30.11 inches Hg (1019.7 mb)
[Sea-level pressure: 1019.5 mb]
Winds: from the WNW (300 degrees) at 8 MPH (7 knots; 3.6 m/s)
Visibility: 10 or more miles (16+ km)
Ceiling: 6000 feet AGL
Clouds: overcast cloud deck at 6000 feet AGL
Present Weather: no significant weather observed at this time
KBKV 192353Z 30007KT 10SM OVC060 27/19 A3011 RMK AO2 SLP195 T02670194 10311 20261 55000

Conditions at: KBKV observed 19 February 2019  22:53 UTC
Temperature: 28.9°C (84°F)
Dewpoint: 18.9°C (66°F) [RH = 55%]
Pressure (altimeter): 30.10 inches Hg (1019.4 mb)
[Sea-level pressure: 1019.1 mb]
Winds: from the SE (130 degrees) at 3 MPH (3 knots; 1.6 m/s)
Visibility: 10 or more miles (16+ km)
Ceiling: at least 12,000 feet AGL
Clouds: sky clear below 12,000 feet AGL
Present Weather: no significant weather observed at this time
KBKV 192253Z 13003KT 10SM CLR 29/19 A3010 RMK AO2 SLP191 T02890189

Conditions at: KBKV observed 19 February 2019  21:53 UTC
Temperature: 30.6°C (87°F)
Dewpoint: 18.3°C (65°F) [RH = 48%]
Pressure (altimeter): 30.10 inches Hg (1019.4 mb)
[Sea-level pressure: 1019.0 mb]
Winds: from the SSE (150 degrees) at 7 MPH (6 knots; 3.1 m/s)
Visibility: 10 or more miles (16+ km)
Ceiling: at least 12,000 feet AGL
Clouds: sky clear below 12,000 feet AGL
Present Weather: no significant weather observed at this time
KBKV 192153Z 15006KT 10SM CLR 31/18 A3010 RMK AO2 SLP190 T03060183

Conditions at: KBKV observed 19 February 2019  20:53 UTC
Temperature: 29.4°C (85°F)
Dewpoint: 18.9°C (66°F) [RH = 53%]
Pressure (altimeter): 30.11 inches Hg (1019.7 mb)
[Sea-level pressure: 1019.4 mb]
Winds: from the SE (130 degrees) at 6 MPH (5 knots; 2.6 m/s)
Visibility: 10 or more miles (16+ km)
Ceiling: at least 12,000 feet AGL
Clouds: few clouds at 5500 feet AGL
Present Weather: no significant weather observed at this time
KBKV 192053Z 13005KT 10SM FEW055 29/19 A3011 RMK AO2 SLP194 T02940189 56030

Conditions at: KBKV observed 19 February 2019  19:53 UTC
Temperature: 31.1°C (88°F)
Dewpoint: 19.4°C (67°F) [RH = 50%]
Pressure (altimeter): 30.13 inches Hg (1020.4 mb)
[Sea-level pressure: 1019.9 mb]
Winds: from the SSE (160 degrees) at 7 MPH (6 knots; 3.1 m/s)
Visibility: 10 or more miles (16+ km)
Ceiling: at least 12,000 feet AGL
Clouds: few clouds at 4200 feet AGL
Present Weather: no significant weather observed at this time
KBKV 191953Z 16006KT 10SM FEW042 31/19 A3013 RMK AO2 SLP199 T03110194

Conditions at: KBKV observed 19 February 2019  18:53 UTC
Temperature: 30.0°C (86°F)
Dewpoint: 20.0°C (68°F) [RH = 55%]
Pressure (altimeter): 30.16 inches Hg (1021.4 mb)
[Sea-level pressure: 1021.0 mb]
Winds: from the SSE (160 degrees) at 9 MPH (8 knots; 4.2 m/s)
Visibility: 10 or more miles (16+ km)
Ceiling: at least 12,000 feet AGL
Clouds: scattered clouds at 3700 feet AGL
scattered clouds at 4800 feet AGL
Present Weather: no significant weather observed at this time
KBKV 191853Z 16008KT 10SM SCT037 SCT048 30/20 A3016 RMK AO2 SLP210 T03000200